Cookeville, TN (38501)

8:44 AM CDT on August 25, 2016 (GMT -0500)
Forrest Cove Ln and Forrest Rd | | Change Station

Elev 1079 ft 36.20 °N, 85.52 °W | Updated 1 minute ago

Clear
Clear
80.4 °F
Feels Like 85 °F
N
3.0
Wind Variable Wind from East
Gusts 3.0 mph

Today
High -- | Low -- °F
--% Chance of Precip.
Yesterday
High -- | Low -- °F
Precip. -- in
Pressure 30.19 in
Visibility 10.0 miles
Clouds Clear
Heat Index 85 °F
Dew Point 73 °F
Humidity 79%
Rainfall 0.00 in
Snow Depth Not available.
6:08 AM 7:18 PM
Last Quarter, 45% visible
METAR KSRB 251335Z AUTO 21005KT 10SM CLR 27/23 A3019 RMK
Pressure 30.19 in
Visibility 10.0 miles
Clouds Clear
Heat Index 85 °F
Dew Point 73 °F
Humidity 79%
Rainfall 0.00 in
Snow Depth Not available.
6:08 AM 7:18 PM
Last Quarter, 45% visible
METAR KSRB 251335Z AUTO 21005KT 10SM CLR 27/23 A3019 RMK

10-Day Weather Forecast

Almanac

Astronomy

Aug. 25, 2016 Rise Set
Actual Time
Civil Twilight
Nautical Twilight
Astronomical Twilight
Moon
Length of Visible Light
Length of Day
Tomorrow will be .
, % of the Moon is Illuminated

Today's Extremes

State Highs State Lows

Community

WunderPhotos

Upload Photos

1,934,847 photos uploaded!

WunderBlog® & News

Nearby

Air Quality

  Air Quality AQ Index Pollutant
Not available.

Snow Depth

Station Depth Elevation

Earthquake Activity

City Distance Mag. Time & Date
Minimum magnitude displayed is 2.5.

Coastal Water Temperatures

Place Temperature

Stations

Nearby Weather Stations

Station Location Temp. Windchill Dew Point Humidity Wind Precip. Elev Updated Type
                   

Watches & Warnings

There are currently no watches in effect.